Hanjin Ottawa — DANM — position and weather

sailwx.info

Track history (hours):
 
Tides and Currents Weather Stations Pressure Air Temp Water Temp Dewpoint Dewpoint Depression Visibility Wind Speed Wind Dir Waves Ship Positions

Hanjin Ottawa

Last reported at 2015-Jul-29 16:28 UTC. Time now 2015-Aug-02 04:14 UTC.
Position N 48°31' W 126°47'.

Length 278.8 m; beam 40.3 m; draft 14 m.

Type: Ship (hazmat cat A). MMSI: 211378360.

Date/timePositionNaut miles runAvg speedWind from/ knotsBaromVisibWave heightAir tempDewpointWater temp
2015-Jul-29 16:28N 48°31' W 126°47'1213.4
2015-Jul-29 15:34N 48°31' W 126°29'1313.1
2015-Jul-29 14:34N 48°31' W 126°09'1413.5
2015-Jul-29 13:33N 48°32' W 125°49'1413.8
2015-Jul-29 12:34N 48°31' W 125°28'1414.0
2015-Jul-29 11:33N 48°31' W 125°07'1414.6
2015-Jul-29 10:33N 48°31' W 124°45'1514.5
2015-Jul-29 09:33N 48°25' W 124°24'1413.6
2015-Jul-29 08:33N 48°20' W 124°06'1313.2
2015-Jul-29 07:33N 48°16' W 123°46'1211.8
2015-Jul-29 06:33N 48°17' W 123°29'1010.3
2015-Jul-29 05:34N 48°23' W 123°16'1817.7
2015-Jul-29 04:34N 48°41' W 123°15'1413.5
2015-Jul-29 03:34N 48°53' W 123°07'1818.2
2015-Jul-29 02:33N 49°08' W 123°24'1515.1
2015-Jul-29 01:33N 49°19' W 123°08'3 2.7
2015-Jul-29 00:33N 49°17' W 123°05'0 0.0
2015-Jul-28 23:33N 49°17' W 123°05'0 0.0
2015-Jul-28 22:33N 49°17' W 123°05'0 0.0
2015-Jul-28 21:32N 49°17' W 123°05'0 0.0
2015-Jul-28 20:32N 49°17' W 123°05'0 0.0
2015-Jul-28 19:31N 49°17' W 123°05'0 0.0
2015-Jul-28 18:31N 49°17' W 123°05'0 0.0
2015-Jul-28 17:34N 49°17' W 123°05'0 0.0
2015-Jul-28 16:33N 49°17' W 123°05'0 0.0
2015-Jul-28 15:33N 49°17' W 123°05'0 0.0
2015-Jul-28 14:32N 49°17' W 123°05'0 0.0
2015-Jul-28 13:32N 49°17' W 123°05'0 0.0
2015-Jul-28 12:31N 49°17' W 123°05'0 0.0
2015-Jul-28 11:31N 49°17' W 123°05'0 0.0
2015-Jul-28 10:33N 49°17' W 123°05'0 0.0
2015-Jul-28 09:33N 49°17' W 123°05'0 0.0
2015-Jul-28 08:33N 49°17' W 123°05'0 0.0
2015-Jul-28 07:32N 49°17' W 123°05'0 0.4
2015-Jul-28 06:33N 49°18' W 123°05'8 7.9
2015-Jul-28 05:33N 49°18' W 123°17'1110.8
2015-Jul-28 04:33N 49°07' W 123°20'1211.6
2015-Jul-28 03:33N 48°58' W 123°10'1312.8
2015-Jul-28 02:33N 48°45' W 123°04'1515.1
2015-Jul-28 01:33N 48°31' W 123°12'1413.5
2015-Jul-28 00:33N 48°20' W 123°24'10 9.7
2015-Jul-27 23:33N 48°11' W 123°24'1211.6
2015-Jul-27 22:33N 48°13' W 123°07'1717.0
2015-Jul-27 21:32N 48°08' W 122°41'1617.0
2015-Jul-27 20:34N 47°54' W 122°29'1717.1
2015-Jul-27 19:33N 47°37' W 122°25'3 3.1
2015-Jul-27 18:33N 47°36' W 122°21'0 0.0
2015-Jul-27 17:24N 47°36' W 122°21'0 0.0
2015-Jul-27 16:29N 47°36' W 122°21'0 0.0
2015-Jul-27 14:31N 47°36' W 122°21'0 0.0
2015-Jul-27 13:31N 47°36' W 122°21'0 0.0
2015-Jul-27 12:31N 47°36' W 122°21'0 0.0
2015-Jul-27 11:30N 47°36' W 122°21'0 0.0
2015-Jul-27 10:33N 47°36' W 122°21'0 0.0
2015-Jul-27 09:32N 47°36' W 122°21'0 0.0
2015-Jul-27 08:32N 47°36' W 122°21'0 0.0
2015-Jul-27 07:31N 47°36' W 122°21'0 0.0
2015-Jul-27 06:31N 47°36' W 122°21'0 0.0
2015-Jul-27 05:31N 47°36' W 122°21'0 0.0
2015-Jul-27 04:33N 47°36' W 122°21'0 0.0
2015-Jul-27 03:33N 47°36' W 122°21'0 0.0
2015-Jul-27 02:32N 47°36' W 122°21'0 0.0
2015-Jul-27 01:17N 47°36' W 122°21'0 0.0
2015-Jul-27 00:31N 47°36' W 122°21'0 0.0
2015-Jul-26 23:16N 47°36' W 122°21'0 0.0
2015-Jul-26 22:30N 47°36' W 122°21'0 0.0
2015-Jul-26 21:33N 47°36' W 122°21'0 0.0
2015-Jul-26 20:30N 47°36' W 122°21'0 0.0
2015-Jul-26 19:32N 47°36' W 122°21'0 0.0
2015-Jul-26 18:17N 47°36' W 122°21'0 0.0
2015-Jul-26 17:28N 47°36' W 122°21'0 0.0
2015-Jul-26 16:25N 47°36' W 122°21'0 0.0
2015-Jul-26 12:32N 47°36' W 122°21'0 0.0
2015-Jul-26 11:26N 47°36' W 122°21'0 0.0
2015-Jul-26 10:22N 47°36' W 122°21'0 0.0
2015-Jul-26 09:31N 47°36' W 122°21'0 0.0
2015-Jul-26 08:30N 47°36' W 122°21'0 0.0
2015-Jul-26 07:33N 47°36' W 122°21'0 0.0
2015-Jul-26 06:30N 47°36' W 122°21'0 0.0
2015-Jul-26 05:32N 47°36' W 122°21'0 0.0
2015-Jul-26 04:29N 47°36' W 122°21'0 0.0
2015-Jul-26 03:31N 47°36' W 122°21'0 0.0
2015-Jul-26 02:31N 47°36' W 122°21'0 0.0
2015-Jul-26 01:33N 47°36' W 122°21'0 0.0
2015-Jul-26 00:33N 47°36' W 122°21'0 0.0
2015-Jul-25 22:29N 47°36' W 122°21'0 0.0
2015-Jul-25 21:26N 47°36' W 122°21'0 0.0
2015-Jul-25 20:31N 47°36' W 122°21'0 0.0
2015-Jul-25 19:28N 47°36' W 122°21'0 0.0
2015-Jul-25 18:12N 47°36' W 122°21'0 0.0
2015-Jul-25 17:33N 47°36' W 122°21'0 0.0
2015-Jul-25 16:32N 47°36' W 122°21'0 0.0
2015-Jul-25 15:29N 47°36' W 122°21'0 0.0
2015-Jul-25 14:32N 47°36' W 122°21'0 0.0
2015-Jul-25 13:31N 47°36' W 122°21'0 0.0
2015-Jul-25 12:31N 47°36' W 122°21'0 0.0
2015-Jul-25 11:33N 47°36' W 122°21'0 0.0
2015-Jul-25 10:33N 47°36' W 122°21'0 0.0
2015-Jul-25 09:32N 47°36' W 122°21'0 0.0
2015-Jul-25 08:32N 47°36' W 122°21'0 0.0
2015-Jul-25 06:25N 47°36' W 122°21'0 0.0
2015-Jul-25 05:28N 47°36' W 122°21'0 0.0
2015-Jul-25 04:33N 47°36' W 122°21'0 0.0
2015-Jul-25 03:33N 47°36' W 122°21'0 0.0
2015-Jul-25 02:32N 47°36' W 122°21'0 0.0
2015-Jul-25 01:32N 47°36' W 122°21'0 0.0
2015-Jul-25 00:32N 47°36' W 122°21'0 0.0
2015-Jul-24 22:10N 47°36' W 122°21'3 4.9
2015-Jul-24 21:33N 47°37' W 122°25'1716.7
2015-Jul-24 20:34N 47°53' W 122°29'1917.7
2015-Jul-24 19:28N 48°10' W 122°44'1718.0
2015-Jul-24 18:33N 48°12' W 123°09'1413.9
2015-Jul-24 17:33N 48°12' W 123°29'1614.6
2015-Jul-24 16:27N 48°14' W 123°54'1415.4
2015-Jul-24 15:33N 48°19' W 124°13'1515.5
2015-Jul-24 14:33N 48°25' W 124°34'1615.7
2015-Jul-24 13:33N 48°29' W 124°57'1515.2
2015-Jul-24 12:33N 48°34' W 125°19'1615.9
2015-Jul-24 11:33N 48°44' W 125°37'1615.9
2015-Jul-24 10:33N 48°54' W 125°56'1616.2
2015-Jul-24 09:33N 49°05' W 126°15'1716.6
2015-Jul-24 08:33N 49°15' W 126°34'1716.6
2015-Jul-24 07:31N 49°26' W 126°54'  
Track history (hours):
 
Tides and Currents Weather Stations Pressure Air Temp Water Temp Dewpoint Dewpoint Depression Visibility Wind Speed Wind Dir Waves Ship Positions

Hanjin Ottawa

Last reported at 2015-Jul-29 16:28 UTC. Time now 2015-Aug-02 04:14 UTC.
Position N 48°31' W 126°47'.

Length 278.8 m; beam 40.3 m; draft 14 m.

Type: Ship (hazmat cat A). MMSI: 211378360.

Date/timePositionNaut miles runAvg speedWind from/ knotsBaromVisibWave heightAir tempDewpointWater temp
2015-Jul-29 16:28N 48°31' W 126°47'1213.4
2015-Jul-29 15:34N 48°31' W 126°29'1313.1
2015-Jul-29 14:34N 48°31' W 126°09'1413.5
2015-Jul-29 13:33N 48°32' W 125°49'1413.8
2015-Jul-29 12:34N 48°31' W 125°28'1414.0
2015-Jul-29 11:33N 48°31' W 125°07'1414.6
2015-Jul-29 10:33N 48°31' W 124°45'1514.5
2015-Jul-29 09:33N 48°25' W 124°24'1413.6
2015-Jul-29 08:33N 48°20' W 124°06'1313.2
2015-Jul-29 07:33N 48°16' W 123°46'1211.8
2015-Jul-29 06:33N 48°17' W 123°29'1010.3
2015-Jul-29 05:34N 48°23' W 123°16'1817.7
2015-Jul-29 04:34N 48°41' W 123°15'1413.5
2015-Jul-29 03:34N 48°53' W 123°07'1818.2
2015-Jul-29 02:33N 49°08' W 123°24'1515.1
2015-Jul-29 01:33N 49°19' W 123°08'3 2.7
2015-Jul-29 00:33N 49°17' W 123°05'0 0.0
2015-Jul-28 23:33N 49°17' W 123°05'0 0.0
2015-Jul-28 22:33N 49°17' W 123°05'0 0.0
2015-Jul-28 21:32N 49°17' W 123°05'0 0.0
2015-Jul-28 20:32N 49°17' W 123°05'0 0.0
2015-Jul-28 19:31N 49°17' W 123°05'0 0.0
2015-Jul-28 18:31N 49°17' W 123°05'0 0.0
2015-Jul-28 17:34N 49°17' W 123°05'0 0.0
2015-Jul-28 16:33N 49°17' W 123°05'0 0.0
2015-Jul-28 15:33N 49°17' W 123°05'0 0.0
2015-Jul-28 14:32N 49°17' W 123°05'0 0.0
2015-Jul-28 13:32N 49°17' W 123°05'0 0.0
2015-Jul-28 12:31N 49°17' W 123°05'0 0.0
2015-Jul-28 11:31N 49°17' W 123°05'0 0.0
2015-Jul-28 10:33N 49°17' W 123°05'0 0.0
2015-Jul-28 09:33N 49°17' W 123°05'0 0.0
2015-Jul-28 08:33N 49°17' W 123°05'0 0.0
2015-Jul-28 07:32N 49°17' W 123°05'0 0.4
2015-Jul-28 06:33N 49°18' W 123°05'8 7.9
2015-Jul-28 05:33N 49°18' W 123°17'1110.8
2015-Jul-28 04:33N 49°07' W 123°20'1211.6
2015-Jul-28 03:33N 48°58' W 123°10'1312.8
2015-Jul-28 02:33N 48°45' W 123°04'1515.1
2015-Jul-28 01:33N 48°31' W 123°12'1413.5
2015-Jul-28 00:33N 48°20' W 123°24'10 9.7
2015-Jul-27 23:33N 48°11' W 123°24'1211.6
2015-Jul-27 22:33N 48°13' W 123°07'1717.0
2015-Jul-27 21:32N 48°08' W 122°41'1617.0
2015-Jul-27 20:34N 47°54' W 122°29'1717.1
2015-Jul-27 19:33N 47°37' W 122°25'3 3.1
2015-Jul-27 18:33N 47°36' W 122°21'0 0.0
2015-Jul-27 17:24N 47°36' W 122°21'0 0.0
2015-Jul-27 16:29N 47°36' W 122°21'0 0.0
2015-Jul-27 14:31N 47°36' W 122°21'0 0.0
2015-Jul-27 13:31N 47°36' W 122°21'0 0.0
2015-Jul-27 12:31N 47°36' W 122°21'0 0.0
2015-Jul-27 11:30N 47°36' W 122°21'0 0.0
2015-Jul-27 10:33N 47°36' W 122°21'0 0.0
2015-Jul-27 09:32N 47°36' W 122°21'0 0.0
2015-Jul-27 08:32N 47°36' W 122°21'0 0.0
2015-Jul-27 07:31N 47°36' W 122°21'0 0.0
2015-Jul-27 06:31N 47°36' W 122°21'0 0.0
2015-Jul-27 05:31N 47°36' W 122°21'0 0.0
2015-Jul-27 04:33N 47°36' W 122°21'0 0.0
2015-Jul-27 03:33N 47°36' W 122°21'0 0.0
2015-Jul-27 02:32N 47°36' W 122°21'0 0.0
2015-Jul-27 01:17N 47°36' W 122°21'0 0.0
2015-Jul-27 00:31N 47°36' W 122°21'0 0.0
2015-Jul-26 23:16N 47°36' W 122°21'0 0.0
2015-Jul-26 22:30N 47°36' W 122°21'0 0.0
2015-Jul-26 21:33N 47°36' W 122°21'0 0.0
2015-Jul-26 20:30N 47°36' W 122°21'0 0.0
2015-Jul-26 19:32N 47°36' W 122°21'0 0.0
2015-Jul-26 18:17N 47°36' W 122°21'0 0.0
2015-Jul-26 17:28N 47°36' W 122°21'0 0.0
2015-Jul-26 16:25N 47°36' W 122°21'0 0.0
2015-Jul-26 12:32N 47°36' W 122°21'0 0.0
2015-Jul-26 11:26N 47°36' W 122°21'0 0.0
2015-Jul-26 10:22N 47°36' W 122°21'0 0.0
2015-Jul-26 09:31N 47°36' W 122°21'0 0.0
2015-Jul-26 08:30N 47°36' W 122°21'0 0.0
2015-Jul-26 07:33N 47°36' W 122°21'0 0.0
2015-Jul-26 06:30N 47°36' W 122°21'0 0.0
2015-Jul-26 05:32N 47°36' W 122°21'0 0.0
2015-Jul-26 04:29N 47°36' W 122°21'0 0.0
2015-Jul-26 03:31N 47°36' W 122°21'0 0.0
2015-Jul-26 02:31N 47°36' W 122°21'0 0.0
2015-Jul-26 01:33N 47°36' W 122°21'0 0.0
2015-Jul-26 00:33N 47°36' W 122°21'0 0.0
2015-Jul-25 22:29N 47°36' W 122°21'0 0.0
2015-Jul-25 21:26N 47°36' W 122°21'0 0.0
2015-Jul-25 20:31N 47°36' W 122°21'0 0.0
2015-Jul-25 19:28N 47°36' W 122°21'0 0.0
2015-Jul-25 18:12N 47°36' W 122°21'0 0.0
2015-Jul-25 17:33N 47°36' W 122°21'0 0.0
2015-Jul-25 16:32N 47°36' W 122°21'0 0.0
2015-Jul-25 15:29N 47°36' W 122°21'0 0.0
2015-Jul-25 14:32N 47°36' W 122°21'0 0.0
2015-Jul-25 13:31N 47°36' W 122°21'0 0.0
2015-Jul-25 12:31N 47°36' W 122°21'0 0.0
2015-Jul-25 11:33N 47°36' W 122°21'0 0.0
2015-Jul-25 10:33N 47°36' W 122°21'0 0.0
2015-Jul-25 09:32N 47°36' W 122°21'0 0.0
2015-Jul-25 08:32N 47°36' W 122°21'0 0.0
2015-Jul-25 06:25N 47°36' W 122°21'0 0.0
2015-Jul-25 05:28N 47°36' W 122°21'0 0.0
2015-Jul-25 04:33N 47°36' W 122°21'0 0.0
2015-Jul-25 03:33N 47°36' W 122°21'0 0.0
2015-Jul-25 02:32N 47°36' W 122°21'0 0.0
2015-Jul-25 01:32N 47°36' W 122°21'0 0.0
2015-Jul-25 00:32N 47°36' W 122°21'0 0.0
2015-Jul-24 22:10N 47°36' W 122°21'3 4.9
2015-Jul-24 21:33N 47°37' W 122°25'1716.7
2015-Jul-24 20:34N 47°53' W 122°29'1917.7
2015-Jul-24 19:28N 48°10' W 122°44'1718.0
2015-Jul-24 18:33N 48°12' W 123°09'1413.9
2015-Jul-24 17:33N 48°12' W 123°29'1614.6
2015-Jul-24 16:27N 48°14' W 123°54'1415.4
2015-Jul-24 15:33N 48°19' W 124°13'1515.5
2015-Jul-24 14:33N 48°25' W 124°34'1615.7
2015-Jul-24 13:33N 48°29' W 124°57'1515.2
2015-Jul-24 12:33N 48°34' W 125°19'1615.9
2015-Jul-24 11:33N 48°44' W 125°37'1615.9
2015-Jul-24 10:33N 48°54' W 125°56'1616.2
2015-Jul-24 09:33N 49°05' W 126°15'1716.6
2015-Jul-24 08:33N 49°15' W 126°34'1716.6
2015-Jul-24 07:31N 49°26' W 126°54'  

Dump ship's entire track history